Terminal Aerodrome Forecast
Issued by NWS Wilmington, OH

Current Version | Previous Version | Graphics & Text | Print | Product List | Glossary On
Versions: 1 2 3 4 5 6 7 8 9 10 11 12 13 14
000
FTUS41 KILN 070500 RRA
TAFDAY
TAF
KDAY 070545Z 0706/0806 20006KT P6SM SCT035 BKN250
     FM071300 22012KT P6SM BKN035
     FM071700 22012G20KT P6SM VCTS BKN035CB
      TEMPO 0718/0722 5SM -TSRA BR OVC025CB
     FM072200 23012KT 5SM -SHRA BR VCTS OVC025CB=

USA.gov is the U.S. government's official web portal to all federal, state and local government web resources and services.